Time;durP1;ratioP1;P1;durP2;ratioP2;P2;SDS_P1;SDS_P2;PMS_P1;PMS_P2;Temp;Humidity;BMP_temperature;BMP_pressure;BME280_temperature;BME280_humidity;BME280_pressure;Samples;Min_cycle;Max_cycle;Signal;HPM_P1;HPM_P2
2022/02/07 00:00:02;;;;;;;7.60;2.25;;;;;;;3.10;100.00;98386.33;4988761;58;1132866;-85
2022/02/07 00:05:01;;;;;;;0.87;0.87;;;;;;;3.06;100.00;98397.96;4988574;58;1133061;-82
2022/02/07 00:10:08;;;;;;;2.93;1.20;;;;;;;3.01;100.00;98394.91;4989573;58;1132920;-81
2022/02/07 00:15:16;;;;;;;20.67;4.00;;;;;;;3.01;100.00;98398.83;4989399;58;1132966;-74
2022/02/07 00:20:24;;;;;;;28.00;5.03;;;;;;;3.01;100.00;98398.83;4989944;59;1134978;-72
2022/02/07 00:25:30;;;;;;;13.63;3.23;;;;;;;3.01;100.00;98398.83;4989297;58;1134949;-81
2022/02/07 00:30:36;;;;;;;14.00;3.07;;;;;;;3.00;100.00;98406.31;4989278;58;1134717;-82
2022/02/07 00:35:42;;;;;;;10.60;2.40;;;;;;;3.04;100.00;98399.90;4989410;58;1134954;-74
2022/02/07 00:41:01;;;;;;;6.63;2.00;;;;;;;3.09;100.00;98404.25;4965851;58;1135112;-76
2022/02/07 00:46:11;;;;;;;7.07;2.60;;;;;;;3.12;100.00;98398.31;4977646;59;21552;-78
2022/02/07 00:51:18;;;;;;;6.12;3.67;;;;;;;3.17;100.00;98402.70;4966877;59;1130936;-74
2022/02/07 00:56:23;;;;;;;5.20;2.27;;;;;;;3.20;100.00;98392.48;4970988;58;1136547;-81
2022/02/07 01:01:29;;;;;;;15.13;5.60;;;;;;;3.23;100.00;98393.98;4962233;58;1136445;-73
2022/02/07 01:06:35;;;;;;;5.07;2.00;;;;;;;3.25;100.00;98398.62;4970409;58;1139365;-73
2022/02/07 01:54:20;;;;;;;2.40;2.13;;;;;;;2.39;100.00;98389.81;5038051;58;1135019;-72
2022/02/07 01:59:18;;;;;;;3.37;2.37;;;;;;;2.29;100.00;98387.55;5035962;58;1135329;-71
2022/02/07 02:04:25;;;;;;;2.93;0.73;;;;;;;2.20;100.00;98380.45;4996530;57;1134900;-76
2022/02/07 02:09:32;;;;;;;1.90;1.00;;;;;;;2.18;100.00;98382.34;4959516;58;1134935;-84
2022/02/07 02:14:56;;;;;;;3.07;1.10;;;;;;;2.22;100.00;98381.16;4990038;58;1135281;-69
2022/02/07 02:20:47;;;;;;;1.77;0.83;;;;;;;2.30;100.00;98376.64;4967645;58;1132931;-78
2022/02/07 02:36:26;;;;;;;4.40;0.70;;;;;;;2.46;100.00;98377.10;5001403;58;1133125;-79
2022/02/07 02:46:46;;;;;;;;;;;;;;;2.48;100.00;98395.61;4910847;59;1134948;-78
2022/02/07 02:51:52;;;;;;;3.17;1.90;;;;;;;2.45;100.00;98402.83;4913336;59;972259;-78
2022/02/07 02:56:58;;;;;;;0.60;0.60;;;;;;;2.39;100.00;98402.86;4974341;59;1132849;-71
2022/02/07 03:02:04;;;;;;;5.17;1.83;;;;;;;2.37;100.00;98408.66;4829889;60;1135046;-77
2022/02/07 03:07:10;;;;;;;4.90;1.93;;;;;;;2.38;100.00;98419.45;4880546;59;1135020;-73
2022/02/07 03:12:19;;;;;;;0.60;0.60;;;;;;;2.35;100.00;98430.59;5045699;58;1134886;-78
2022/02/07 03:17:25;;;;;;;0.50;0.50;;;;;;;2.31;100.00;98444.81;5045556;57;1134937;-78
2022/02/07 03:22:31;;;;;;;1.60;1.03;;;;;;;2.25;100.00;98461.78;5045483;58;1134875;-75
2022/02/07 03:27:36;;;;;;;1.10;0.47;;;;;;;2.19;100.00;98476.58;5045723;57;1134868;-77
2022/02/07 03:32:42;;;;;;;1.33;0.47;;;;;;;2.11;100.00;98490.69;5045284;57;1135164;-75
2022/02/07 03:37:50;;;;;;;1.13;0.90;;;;;;;1.99;100.00;98492.88;5048389;57;1134825;-80
2022/02/07 03:42:58;;;;;;;1.13;0.33;;;;;;;1.89;100.00;98505.78;5080237;57;1134907;-77
2022/02/07 03:48:04;;;;;;;0.57;0.20;;;;;;;1.83;100.00;98519.29;5150275;56;1134909;-75
2022/02/07 03:53:12;;;;;;;2.43;0.30;;;;;;;1.78;100.00;98524.00;5124803;57;1134931;-71
2022/02/07 03:58:35;;;;;;;0.40;0.30;;;;;;;1.76;100.00;98537.14;5155563;56;1134849;-80
2022/02/07 04:03:42;;;;;;;0.30;0.30;;;;;;;1.72;100.00;98551.80;5147323;57;1134956;-74
2022/02/07 04:08:51;;;;;;;1.73;0.40;;;;;;;1.68;100.00;98560.30;5146305;57;1134928;-72
2022/02/07 04:14:00;;;;;;;0.30;0.30;;;;;;;1.69;100.00;98570.25;5146010;56;1134494;-79
2022/02/07 04:19:20;;;;;;;0.20;0.20;;;;;;;1.70;100.00;98580.57;5155812;56;1135134;-78
2022/02/07 04:24:17;;;;;;;0.30;0.30;;;;;;;1.71;100.00;98595.27;5153628;56;1134233;-74
2022/02/07 04:29:25;;;;;;;0.40;0.40;;;;;;;1.74;100.00;98608.55;5154454;57;1134876;-76
2022/02/07 04:34:31;;;;;;;0.50;0.50;;;;;;;1.78;100.00;98625.64;5151496;56;1135095;-74
2022/02/07 04:39:37;;;;;;;0.30;0.30;;;;;;;1.82;100.00;98630.16;5140657;57;1134852;-77
2022/02/07 04:45:05;;;;;;;1.90;0.40;;;;;;;1.85;100.00;98654.68;5139438;57;1135074;-74
2022/02/07 04:55:43;;;;;;;0.30;0.30;;;;;;;1.88;100.00;98676.16;5129285;57;1132875;-75
2022/02/07 05:00:55;;;;;;;3.58;1.05;;;;;;;1.89;100.00;98688.25;5128470;57;1132816;-69
2022/02/07 05:16:18;;;;;;;1.53;0.50;;;;;;;1.93;100.00;98732.72;5119721;57;1132915;-73
2022/02/07 05:21:18;;;;;;;0.53;0.50;;;;;;;1.95;100.00;98753.46;5119943;57;1132847;-80
2022/02/07 05:26:28;;;;;;;0.47;0.47;;;;;;;1.97;100.00;98770.67;5119002;57;1132866;-79
2022/02/07 05:31:45;;;;;;;0.30;0.30;;;;;;;1.99;100.00;98777.05;5080955;57;1132905;-80
2022/02/07 05:37:14;;;;;;;3.20;0.70;;;;;;;1.98;100.00;98784.07;5124664;56;1135204;-76
2022/02/07 05:42:20;;;;;;;0.40;0.40;;;;;;;2.01;100.00;98807.30;5075529;56;1135324;-75
2022/02/07 05:47:28;;;;;;;1.37;0.50;;;;;;;2.01;100.00;98822.10;5124407;57;1134770;-70
2022/02/07 05:52:51;;;;;;;1.50;1.00;;;;;;;2.00;100.00;98853.02;5155884;57;1134902;-82
2022/02/07 05:58:05;;;;;;;1.80;1.17;;;;;;;1.97;100.00;98866.30;5156311;56;1135013;-83
2022/02/07 06:03:28;;;;;;;13.60;4.95;;;;;;;1.95;100.00;98875.98;5151973;57;1134872;-71
2022/02/07 06:08:35;;;;;;;4.63;2.37;;;;;;;1.94;100.00;98899.09;5146677;57;1137131;-77
2022/02/07 06:13:43;;;;;;;1.60;1.47;;;;;;;1.92;100.00;98913.53;5147227;56;1135422;-76
2022/02/07 06:18:50;;;;;;;2.00;1.13;;;;;;;1.88;100.00;98938.12;5146848;57;1134873;-75
2022/02/07 06:23:57;;;;;;;3.13;1.80;;;;;;;1.84;100.00;98954.90;5147312;57;1134851;-77
2022/02/07 06:29:04;;;;;;;2.77;0.70;;;;;;;1.81;100.00;98966.86;5145790;57;1134770;-78
2022/02/07 06:34:11;;;;;;;1.53;0.80;;;;;;;1.80;100.00;98995.63;5152628;57;1134856;-72
2022/02/07 06:39:17;;;;;;;2.67;1.10;;;;;;;1.74;100.00;99011.19;5072155;58;1135052;-72
2022/02/07 06:44:26;;;;;;;6.83;1.80;;;;;;;1.69;100.00;99039.31;5077649;57;1135320;-75
2022/02/07 06:49:32;;;;;;;1.22;0.90;;;;;;;1.65;100.00;99045.21;5147544;57;1134758;-73
2022/02/07 06:54:39;;;;;;;1.37;1.30;;;;;;;1.64;100.00;99064.39;5131762;57;1134804;-76
2022/02/07 06:59:47;;;;;;;1.80;1.47;;;;;;;1.62;100.00;99077.14;5131966;57;1134696;-81
2022/02/07 07:04:57;;;;;;;1.53;1.37;;;;;;;1.57;100.00;99083.94;5135587;57;1134739;-76
2022/02/07 07:10:04;;;;;;;2.27;1.57;;;;;;;1.54;100.00;99110.18;5080873;57;1134914;-77
2022/02/07 07:15:27;;;;;;;2.50;2.10;;;;;;;1.52;100.00;99112.54;5186444;57;1135251;-75
2022/02/07 07:20:18;;;;;;;2.20;1.60;;;;;;;1.55;100.00;99133.16;5182800;56;1134951;-77
2022/02/07 07:25:25;;;;;;;5.30;2.73;;;;;;;1.55;100.00;99145.73;5137677;57;1134824;-71
2022/02/07 07:30:37;;;;;;;5.93;2.60;;;;;;;1.59;100.00;99162.02;5130290;56;1134777;-73
2022/02/07 07:35:39;;;;;;;4.90;1.80;;;;;;;1.64;100.00;99171.23;5131466;57;1134798;-73
2022/02/07 07:40:46;;;;;;;4.13;2.10;;;;;;;1.69;100.00;99187.86;5126317;57;1134795;-72
2022/02/07 07:46:03;;;;;;;4.03;1.97;;;;;;;1.71;100.00;99207.69;5126200;57;1132649;-78
2022/02/07 07:51:27;;;;;;;6.07;2.03;;;;;;;1.73;100.00;99212.80;5155054;57;1132780;-78
2022/02/07 08:02:00;;;;;;;2.85;1.60;;;;;;;1.74;100.00;99222.30;5181864;56;1132706;-71
2022/02/07 08:12:25;;;;;;;6.43;1.93;;;;;;;1.91;100.00;99259.89;5181068;56;1134776;-75
2022/02/07 08:17:32;;;;;;;4.27;1.50;;;;;;;2.01;100.00;99271.41;5181642;56;1130886;-70
2022/02/07 08:22:38;;;;;;;4.90;2.73;;;;;;;2.10;100.00;99281.28;5201303;57;21080;-78
2022/02/07 08:27:44;;;;;;;3.37;1.50;;;;;;;2.16;100.00;99300.06;5153556;57;1130899;-75
2022/02/07 08:32:50;;;;;;;5.40;1.53;;;;;;;2.21;100.00;99312.37;5131878;57;1134736;-72
2022/02/07 08:37:57;;;;;;;4.85;1.87;;;;;;;2.23;100.00;99320.47;5127623;57;1134675;-77
2022/02/07 08:43:02;;;;;;;6.53;1.90;;;;;;;2.29;100.00;99342.24;5127002;57;1134855;-78
2022/02/07 08:48:10;;;;;;;3.93;2.30;;;;;;;2.33;100.00;99356.78;5126650;57;1134842;-82
2022/02/07 08:53:15;;;;;;;10.03;2.90;;;;;;;2.35;100.00;99365.81;5144036;57;1135159;-77
2022/02/07 08:58:24;;;;;;;3.67;2.27;;;;;;;2.41;100.00;99381.11;5150368;57;1136811;-74
2022/02/07 09:03:57;;;;;;;1.80;0.97;;;;;;;2.46;100.00;99388.16;5151484;57;1134814;-81
2022/02/07 09:13:49;;;;;;;6.37;2.10;;;;;;;2.56;100.00;99399.72;5150629;57;1134821;-79
2022/02/07 09:18:54;;;;;;;1.93;1.70;;;;;;;2.63;100.00;99420.57;5153488;57;1134783;-74
2022/02/07 09:24:01;;;;;;;7.63;1.53;;;;;;;2.64;100.00;99434.46;5155229;57;1135065;-73
2022/02/07 09:29:07;;;;;;;5.80;1.57;;;;;;;2.63;100.00;99438.00;5186817;56;1134716;-70
2022/02/07 09:34:12;;;;;;;7.23;1.60;;;;;;;2.62;100.00;99448.91;5154395;56;1134762;-75
2022/02/07 09:39:18;;;;;;;7.47;2.57;;;;;;;2.64;100.00;99465.31;5153663;57;1134858;-76
2022/02/07 09:44:28;;;;;;;12.07;6.47;;;;;;;2.63;100.00;99478.00;5155420;57;1134726;-77
2022/02/07 09:49:34;;;;;;;8.60;2.70;;;;;;;2.66;100.00;99481.73;5155848;57;1136930;-75
2022/02/07 09:54:40;;;;;;;2.23;1.10;;;;;;;2.69;100.00;99482.85;5136193;57;1135200;-76
2022/02/07 09:59:49;;;;;;;7.10;2.20;;;;;;;2.73;100.00;99496.56;5131751;56;1134707;-74
2022/02/07 10:04:56;;;;;;;9.60;2.62;;;;;;;2.76;100.00;99504.17;5130743;57;1134838;-77
2022/02/07 10:10:21;;;;;;;13.15;3.75;;;;;;;2.80;100.00;99513.05;5130544;57;1134799;-75
2022/02/07 10:15:30;;;;;;;8.83;3.83;;;;;;;2.88;100.00;99511.75;5128814;57;1136899;-73
2022/02/07 10:21:10;;;;;;;7.22;1.67;;;;;;;2.95;100.00;99526.08;5130656;56;1134958;-74
2022/02/07 10:46:56;;;;;;;9.10;1.45;;;;;;;3.28;100.00;99565.78;5132035;56;1134901;-74
2022/02/07 10:52:03;;;;;;;12.13;2.03;;;;;;;3.25;100.00;99563.35;5134259;57;1132846;-75
2022/02/07 10:57:10;;;;;;;12.50;2.53;;;;;;;3.22;100.00;99565.31;5154397;57;1135268;-73
2022/02/07 11:07:32;;;;;;;4.33;2.27;;;;;;;3.36;100.00;99571.34;5147635;57;1141270;-77
2022/02/07 11:12:55;;;;;;;4.57;1.90;;;;;;;3.43;100.00;99577.04;5153393;57;1132834;-70
2022/02/07 11:23:52;;;;;;;7.33;2.17;;;;;;;3.53;100.00;99596.42;5152959;57;1136886;-75
2022/02/07 11:28:26;;;;;;;4.73;2.67;;;;;;;3.53;100.00;99605.11;5171010;56;1130804;-71
2022/02/07 11:33:50;;;;;;;21.27;6.85;;;;;;;3.52;100.00;99611.27;5183745;56;1134793;-71
2022/02/07 11:39:02;;;;;;;10.67;2.63;;;;;;;3.52;100.00;99630.88;5071221;58;1136829;-73
2022/02/07 11:44:08;;;;;;;7.10;2.30;;;;;;;3.54;100.00;99641.23;5072220;58;1136975;-73
2022/02/07 11:49:14;;;;;;;4.20;2.27;;;;;;;3.52;100.00;99643.95;5072200;57;1134919;-80
2022/02/07 11:54:25;;;;;;;54.50;21.67;;;;;;;3.54;100.00;99646.00;5042901;58;1134793;-84
2022/02/07 11:59:42;;;;;;;10.97;4.50;;;;;;;3.57;100.00;99655.90;5080664;57;1139033;-77
2022/02/07 12:04:51;;;;;;;7.97;4.80;;;;;;;3.59;100.00;99663.19;5156022;56;1136971;-74
2022/02/07 12:10:15;;;;;;;6.33;1.40;;;;;;;3.65;100.00;99671.50;5187426;56;1134975;-76
2022/02/07 12:15:35;;;;;;;9.83;2.63;;;;;;;3.93;100.00;99683.66;5154628;57;1134879;-71
2022/02/07 12:20:48;;;;;;;10.20;3.90;;;;;;;4.02;100.00;99703.99;5178675;56;1134934;-75
2022/02/07 12:25:57;;;;;;;4.93;1.77;;;;;;;4.02;100.00;99705.77;5218829;56;1136907;-73
2022/02/07 12:31:21;;;;;;;9.25;4.37;;;;;;;4.06;100.00;99726.89;5220003;56;1134830;-73
2022/02/07 12:36:30;;;;;;;11.83;1.35;;;;;;;4.02;100.00;99739.78;5181411;56;1135243;-71
2022/02/07 12:41:36;;;;;;;12.97;5.83;;;;;;;3.89;100.00;99745.79;5153015;57;1137438;-75
2022/02/07 12:46:45;;;;;;;18.80;8.10;;;;;;;3.63;100.00;99777.95;5154435;57;1137256;-70
2022/02/07 12:51:54;;;;;;;10.87;5.63;;;;;;;3.43;100.00;99793.52;5155118;57;1135116;-71
2022/02/07 12:57:03;;;;;;;15.53;5.63;;;;;;;3.32;100.00;99789.41;5154344;56;1134966;-74
2022/02/07 13:02:11;;;;;;;16.03;6.67;;;;;;;3.31;100.00;99810.41;5152531;56;1134875;-82
2022/02/07 13:07:20;;;;;;;15.00;4.27;;;;;;;3.33;100.00;99810.69;5151806;57;1134922;-78
2022/02/07 13:12:49;;;;;;;9.33;3.17;;;;;;;3.43;100.00;99816.20;5154603;57;1134861;-72
2022/02/07 13:17:33;;;;;;;5.30;2.40;;;;;;;3.54;100.00;99826.39;5152720;56;1132690;-77
2022/02/07 13:22:38;;;;;;;10.40;2.90;;;;;;;3.66;100.00;99826.61;5117748;57;1133021;-76
2022/02/07 13:27:44;;;;;;;11.87;3.67;;;;;;;3.76;100.00;99831.64;5132581;57;1134837;-77
2022/02/07 13:32:51;;;;;;;14.70;4.33;;;;;;;3.81;100.00;99843.52;5112045;57;1134878;-72
2022/02/07 13:38:02;;;;;;;11.17;7.10;;;;;;;3.78;100.00;99860.70;5110409;57;1134983;-77
2022/02/07 13:43:23;;;;;;;9.43;3.13;;;;;;;3.82;100.00;99879.17;5130241;57;1134761;-72
2022/02/07 13:48:30;;;;;;;16.40;4.30;;;;;;;3.88;100.00;99889.28;5149284;57;1132710;-75
2022/02/07 13:53:39;;;;;;;10.00;3.45;;;;;;;3.95;100.00;99900.70;5153288;57;1132743;-75
2022/02/07 13:58:45;;;;;;;7.83;2.83;;;;;;;4.00;100.00;99910.41;5139877;57;1132732;-81
2022/02/07 14:03:57;;;;;;;14.57;3.37;;;;;;;4.07;100.00;99918.27;5167900;56;1134734;-74
2022/02/07 14:09:01;;;;;;;8.40;2.73;;;;;;;4.12;100.00;99928.84;5208173;56;1137008;-73
2022/02/07 14:14:07;;;;;;;9.10;3.60;;;;;;;4.36;100.00;99942.20;5083311;57;1134693;-69
2022/02/07 14:19:14;;;;;;;8.40;2.57;;;;;;;4.41;100.00;99966.34;5094162;57;1134886;-69
2022/02/07 14:24:27;;;;;;;12.80;3.77;;;;;;;4.40;100.00;99967.27;5094541;57;1134790;-71
2022/02/07 14:29:30;;;;;;;14.90;2.90;;;;;;;4.75;100.00;99976.86;5089672;57;1136899;-73
2022/02/07 14:34:36;;;;;;;9.60;2.67;;;;;;;4.80;100.00;99987.06;5096588;57;1137014;-70
2022/02/07 14:39:42;;;;;;;18.97;7.80;;;;;;;4.58;100.00;99993.61;5113652;57;1134870;-71
2022/02/07 14:45:08;;;;;;;19.30;9.30;;;;;;;4.42;100.00;100001.22;5104846;57;1137181;-71
2022/02/07 14:50:05;;;;;;;15.07;4.20;;;;;;;4.30;100.00;100032.88;5095791;57;1139096;-72
2022/02/07 14:55:12;;;;;;;24.43;4.60;;;;;;;4.16;100.00;100034.16;5108078;57;1139156;-74
2022/02/07 15:00:23;;;;;;;11.37;3.17;;;;;;;3.94;100.00;100046.36;5118102;56;1138808;-72
2022/02/07 15:05:30;;;;;;;10.90;2.83;;;;;;;3.73;100.00;100060.66;5110223;57;1139084;-73
2022/02/07 15:10:37;;;;;;;10.23;3.13;;;;;;;3.61;100.00;100075.73;5113447;56;1139262;-72
2022/02/07 15:15:45;;;;;;;18.23;6.80;;;;;;;3.52;100.00;100079.23;5131001;57;1139000;-70
2022/02/07 15:20:51;;;;;;;13.68;3.35;;;;;;;3.53;100.00;100080.07;5149545;57;1139122;-74
2022/02/07 15:25:57;;;;;;;17.80;4.03;;;;;;;3.48;100.00;100097.34;5140183;57;1138862;-71
2022/02/07 15:31:04;;;;;;;95.13;33.63;;;;;;;3.46;100.00;100100.96;5132812;57;1139002;-70
2022/02/07 15:36:11;;;;;;;32.20;11.57;;;;;;;3.46;100.00;100117.95;5153841;57;1141030;-75
2022/02/07 15:41:17;;;;;;;27.37;7.63;;;;;;;3.46;100.00;100124.03;5128934;57;1141088;-75
2022/02/07 15:46:24;;;;;;;22.83;6.33;;;;;;;3.45;100.00;100131.48;5112439;57;1139018;-75
2022/02/07 15:51:29;;;;;;;55.20;16.20;;;;;;;3.46;100.00;100144.09;5114847;57;1138392;-73
2022/02/07 15:56:35;;;;;;;19.50;9.00;;;;;;;3.47;100.00;100154.48;5119842;57;1141217;-71
2022/02/07 16:01:41;;;;;;;28.17;10.43;;;;;;;3.46;100.00;100170.23;5128518;57;1139012;-75
2022/02/07 16:06:49;;;;;;;25.30;5.37;;;;;;;3.48;100.00;100184.08;5126782;57;1141091;-70
2022/02/07 16:11:57;;;;;;;30.37;6.83;;;;;;;3.53;100.00;100196.42;5126794;57;1138975;-73
2022/02/07 16:17:02;;;;;;;22.27;5.17;;;;;;;3.53;100.00;100205.11;5126700;57;1139191;-72
2022/02/07 16:22:08;;;;;;;22.37;6.63;;;;;;;3.54;100.00;100215.95;5126831;57;1139025;-74
2022/02/07 16:27:15;;;;;;;23.40;5.23;;;;;;;3.53;100.00;100231.71;5126838;57;1139052;-74
2022/02/07 16:32:21;;;;;;;22.93;4.63;;;;;;;3.56;100.00;100249.02;5105254;57;1139041;-71
2022/02/07 16:37:27;;;;;;;17.50;4.55;;;;;;;3.53;100.00;100254.78;5124945;57;1138982;-72
2022/02/07 16:42:36;;;;;;;55.53;16.67;;;;;;;3.56;100.00;100270.78;5091167;56;1139005;-70
2022/02/07 16:47:41;;;;;;;21.60;5.33;;;;;;;3.58;100.00;100276.78;5131250;56;1141031;-71
2022/02/07 16:52:47;;;;;;;25.43;8.60;;;;;;;3.57;100.00;100284.23;5131292;57;1136917;-73
2022/02/07 16:57:53;;;;;;;23.50;6.33;;;;;;;3.62;100.00;100293.16;5131318;57;1136952;-70
2022/02/07 17:02:59;;;;;;;27.97;8.23;;;;;;;3.59;100.00;100299.39;5127014;57;1136901;-74
2022/02/07 17:08:05;;;;;;;33.57;7.67;;;;;;;3.62;100.00;100311.46;5126990;57;1136923;-69
2022/02/07 17:13:13;;;;;;;17.80;5.17;;;;;;;3.61;100.00;100325.45;5116663;57;1136968;-70
2022/02/07 17:18:19;;;;;;;31.03;6.87;;;;;;;3.60;100.00;100332.45;5091756;57;1137181;-71
2022/02/07 17:23:25;;;;;;;29.83;5.13;;;;;;;3.60;100.00;100333.77;5088706;57;1136951;-73
2022/02/07 17:28:30;;;;;;;28.30;4.63;;;;;;;3.58;100.00;100339.99;5079233;57;1136966;-71
2022/02/07 17:33:37;;;;;;;17.07;2.87;;;;;;;3.56;100.00;100353.14;5081739;57;1136937;-70
2022/02/07 17:38:43;;;;;;;24.07;4.40;;;;;;;3.57;100.00;100370.98;5131986;57;1136908;-74
2022/02/07 17:43:55;;;;;;;10.13;2.50;;;;;;;3.57;100.00;100380.98;5131827;57;1136952;-74
2022/02/07 17:49:01;;;;;;;163.47;67.50;;;;;;;3.53;99.25;100382.05;5131993;57;1136885;-74
2022/02/07 17:54:07;;;;;;;28.23;4.90;;;;;;;3.56;100.00;100379.75;5111254;57;1139068;-72
2022/02/07 17:59:13;;;;;;;24.80;5.40;;;;;;;3.54;99.19;100388.98;5048906;58;1136896;-74
2022/02/07 18:04:19;;;;;;;39.07;10.83;;;;;;;3.59;98.78;100397.45;5049001;58;1134915;-75
2022/02/07 18:09:25;;;;;;;20.07;5.67;;;;;;;3.58;99.24;100394.44;5048986;57;1136927;-69
2022/02/07 18:14:32;;;;;;;19.70;4.43;;;;;;;3.59;98.92;100408.37;5048994;58;1132803;-69
2022/02/07 18:19:38;;;;;;;18.93;3.40;;;;;;;3.62;98.33;100414.30;5049048;58;1133106;-72
2022/02/07 18:24:44;;;;;;;17.53;4.60;;;;;;;3.61;98.52;100413.06;5049202;58;1136924;-78
2022/02/07 18:29:54;;;;;;;11.80;3.10;;;;;;;3.65;98.32;100420.69;5048612;58;1137151;-72
2022/02/07 18:35:00;;;;;;;14.03;3.23;;;;;;;3.65;98.10;100427.22;5073599;57;1136889;-72
2022/02/07 18:40:11;;;;;;;14.70;4.17;;;;;;;3.65;97.95;100425.06;5131681;57;1136966;-72
2022/02/07 18:45:22;;;;;;;27.37;5.80;;;;;;;3.67;97.71;100416.19;5131565;57;1136927;-73
2022/02/07 18:50:22;;;;;;;14.83;3.50;;;;;;;3.68;98.48;100408.73;5130801;57;1136890;-74
2022/02/07 18:55:28;;;;;;;17.93;4.20;;;;;;;3.69;98.79;100416.12;5131735;57;1136999;-71
2022/02/07 19:00:34;;;;;;;16.90;3.23;;;;;;;3.65;98.62;100428.98;5131618;57;1136986;-71
2022/02/07 19:10:54;;;;;;;18.07;3.37;;;;;;;3.66;99.34;100448.53;5131729;57;1136935;-73
2022/02/07 19:16:03;;;;;;;24.43;4.80;;;;;;;3.65;100.00;100453.84;5131556;57;1136897;-76
2022/02/07 19:21:08;;;;;;;16.87;3.87;;;;;;;3.65;100.00;100464.30;5131824;56;1138974;-70
2022/02/07 19:26:21;;;;;;;16.87;3.30;;;;;;;3.61;100.00;100464.91;5131816;57;1139253;-73
2022/02/07 19:31:26;;;;;;;27.73;4.57;;;;;;;3.59;100.00;100481.58;5131610;57;1139217;-71
2022/02/07 19:36:31;;;;;;;17.97;4.50;;;;;;;3.58;100.00;100489.05;5128856;57;1139089;-71
2022/02/07 19:41:59;;;;;;;26.50;5.13;;;;;;;3.59;100.00;100503.35;5110452;57;1138983;-77
2022/02/07 19:46:55;;;;;;;10.50;2.67;;;;;;;3.59;100.00;100505.97;5089291;57;1138976;-72
2022/02/07 19:52:01;;;;;;;25.43;5.13;;;;;;;3.58;100.00;100529.11;5091498;57;1139072;-72
2022/02/07 19:57:07;;;;;;;13.33;3.03;;;;;;;3.56;100.00;100530.95;5086517;57;1138967;-74
2022/02/07 20:02:17;;;;;;;11.67;3.47;;;;;;;3.58;100.00;100544.80;5070668;57;1139066;-70
2022/02/07 20:07:26;;;;;;;26.87;5.07;;;;;;;3.61;100.00;100551.66;5048548;58;1139034;-75
2022/02/07 20:12:32;;;;;;;11.03;3.60;;;;;;;3.60;100.00;100552.58;5129531;56;1139305;-71
2022/02/07 20:17:40;;;;;;;21.70;4.87;;;;;;;3.58;100.00;100565.72;5131467;57;1139028;-75
2022/02/07 20:22:45;;;;;;;21.40;5.40;;;;;;;3.53;100.00;100580.77;5131594;57;1138983;-73
2022/02/07 20:27:51;;;;;;;22.40;4.23;;;;;;;3.51;100.00;100574.80;5131510;57;1139029;-77
2022/02/07 20:32:57;;;;;;;26.07;4.50;;;;;;;3.49;100.00;100585.78;5131723;56;1138955;-77
2022/02/07 20:38:04;;;;;;;14.03;4.37;;;;;;;3.49;100.00;100604.94;5129762;57;1138998;-73
2022/02/07 20:43:13;;;;;;;26.20;5.23;;;;;;;3.50;100.00;100607.09;5130622;57;1139245;-73
2022/02/07 20:48:34;;;;;;;24.30;5.30;;;;;;;3.50;100.00;100607.94;5122661;56;1138997;-77
2022/02/07 20:53:27;;;;;;;27.60;5.85;;;;;;;3.51;100.00;100611.41;5128022;57;1138990;-74
2022/02/07 20:58:32;;;;;;;23.97;5.20;;;;;;;3.48;100.00;100616.31;5131391;57;1136899;-77
2022/02/07 21:03:49;;;;;;;20.63;5.97;;;;;;;3.52;100.00;100627.45;5066463;57;1137017;-76
2022/02/07 21:08:51;;;;;;;29.45;7.05;;;;;;;3.49;100.00;100634.16;5129285;57;1136903;-81
2022/02/07 21:13:57;;;;;;;25.30;4.97;;;;;;;3.45;100.00;100645.67;5122611;57;1137214;-81
2022/02/07 21:19:05;;;;;;;32.07;4.33;;;;;;;3.40;100.00;100652.86;5127240;57;1137205;-74
2022/02/07 21:24:11;;;;;;;37.50;4.73;;;;;;;3.30;100.00;100646.37;5111320;57;1136910;-77
2022/02/07 21:29:17;;;;;;;19.40;4.17;;;;;;;3.31;100.00;100663.30;5081562;57;1136948;-82
2022/02/07 21:34:23;;;;;;;33.23;5.33;;;;;;;3.27;100.00;100666.95;5086927;57;1137017;-85
2022/02/07 21:39:29;;;;;;;28.00;6.80;;;;;;;3.23;100.00;100683.69;5154706;57;1136964;-73
2022/02/07 21:44:35;;;;;;;32.80;9.37;;;;;;;3.21;100.00;100701.69;5156418;56;1136920;-80
2022/02/07 21:49:41;;;;;;;30.70;6.33;;;;;;;3.16;100.00;100698.80;5156617;57;1136967;-76
2022/02/07 21:54:47;;;;;;;26.67;4.87;;;;;;;3.10;100.00;100696.45;5155416;57;1136914;-79
2022/02/07 21:59:52;;;;;;;13.87;3.33;;;;;;;3.06;100.00;100709.70;5154812;56;1136967;-73
2022/02/07 22:04:59;;;;;;;20.13;5.17;;;;;;;3.04;100.00;100720.71;5155744;57;1136921;-77
2022/02/07 22:10:08;;;;;;;19.03;4.47;;;;;;;3.00;100.00;100716.52;5156382;57;1137207;-80
2022/02/07 22:15:32;;;;;;;12.53;3.97;;;;;;;2.98;100.00;100732.72;5155426;57;1137297;-80
2022/02/07 22:20:25;;;;;;;19.03;3.37;;;;;;;2.98;100.00;100741.41;5151461;57;1134819;-78
2022/02/07 22:25:31;;;;;;;23.77;4.53;;;;;;;3.01;100.00;100759.57;5156015;57;1139107;-74
2022/02/07 22:30:39;;;;;;;12.90;2.87;;;;;;;3.03;100.00;100779.95;5118750;57;1139040;-77
2022/02/07 22:35:46;;;;;;;20.80;4.23;;;;;;;3.06;100.00;100779.80;5138556;57;1139001;-76
2022/02/07 22:40:57;;;;;;;26.80;3.83;;;;;;;3.08;100.00;100780.59;5156747;57;1138961;-72
2022/02/07 22:46:03;;;;;;;22.27;5.27;;;;;;;3.02;100.00;100790.02;5156108;57;1138959;-70
2022/02/07 22:51:09;;;;;;;12.23;3.67;;;;;;;2.99;100.00;100797.13;5156309;56;1139042;-74
2022/02/07 22:56:17;;;;;;;18.40;3.17;;;;;;;2.98;100.00;100802.80;5156292;57;1139072;-75
2022/02/07 23:01:25;;;;;;;13.77;3.33;;;;;;;2.98;100.00;100799.34;5156182;57;1138965;-77
2022/02/07 23:06:33;;;;;;;12.53;3.55;;;;;;;2.98;100.00;100811.95;5156003;57;1139468;-77
2022/02/07 23:22:33;;;;;;;18.60;3.63;;;;;;;3.04;100.00;100845.67;5156348;56;1139224;-72
2022/02/07 23:43:15;;;;;;;15.70;4.20;;;;;;;3.26;100.00;100871.75;5151927;57;1139007;-75
2022/02/07 23:48:19;;;;;;;25.73;3.47;;;;;;;3.29;100.00;100877.30;5150077;57;1138982;-77
2022/02/07 23:58:32;;;;;;;20.10;3.07;;;;;;;3.37;100.00;100885.66;5151595;57;1139245;-74
